sensor_id;sensor_type;location;lat;lon;timestamp;temperature;humidity
30304;DHT22;17112;48.636;10.152;2022-12-07T00:02:05;6.10;72.40
30304;DHT22;17112;48.636;10.152;2022-12-07T00:04:31;6.10;72.50
30304;DHT22;17112;48.636;10.152;2022-12-07T00:06:56;6.10;72.60
30304;DHT22;17112;48.636;10.152;2022-12-07T00:09:22;6.10;72.70
30304;DHT22;17112;48.636;10.152;2022-12-07T00:11:50;6.10;72.80
30304;DHT22;17112;48.636;10.152;2022-12-07T00:14:16;6.10;72.80
30304;DHT22;17112;48.636;10.152;2022-12-07T00:16:42;6.10;72.70
30304;DHT22;17112;48.636;10.152;2022-12-07T00:19:11;6.10;73.10
30304;DHT22;17112;48.636;10.152;2022-12-07T00:21:37;6.20;72.70
30304;DHT22;17112;48.636;10.152;2022-12-07T00:24:04;6.20;72.70
30304;DHT22;17112;48.636;10.152;2022-12-07T00:26:35;6.20;72.70
30304;DHT22;17112;48.636;10.152;2022-12-07T00:29:04;6.20;72.70
30304;DHT22;17112;48.636;10.152;2022-12-07T00:31:33;6.20;72.60
30304;DHT22;17112;48.636;10.152;2022-12-07T00:34:01;6.20;72.50
30304;DHT22;17112;48.636;10.152;2022-12-07T00:36:27;6.20;72.50
30304;DHT22;17112;48.636;10.152;2022-12-07T00:38:54;6.20;72.40
30304;DHT22;17112;48.636;10.152;2022-12-07T00:41:22;6.20;72.50
30304;DHT22;17112;48.636;10.152;2022-12-07T00:43:49;6.30;72.50
30304;DHT22;17112;48.636;10.152;2022-12-07T00:46:15;6.30;72.50
30304;DHT22;17112;48.636;10.152;2022-12-07T00:48:41;6.30;72.50
30304;DHT22;17112;48.636;10.152;2022-12-07T00:51:11;6.30;72.40
30304;DHT22;17112;48.636;10.152;2022-12-07T00:53:38;6.30;72.40
30304;DHT22;17112;48.636;10.152;2022-12-07T00:56:13;6.30;72.30
30304;DHT22;17112;48.636;10.152;2022-12-07T00:58:39;6.30;72.20
30304;DHT22;17112;48.636;10.152;2022-12-07T01:01:05;6.30;72.40
30304;DHT22;17112;48.636;10.152;2022-12-07T01:03:31;6.30;72.40
30304;DHT22;17112;48.636;10.152;2022-12-07T01:05:57;6.30;72.40
30304;DHT22;17112;48.636;10.152;2022-12-07T01:08:24;6.30;72.30
30304;DHT22;17112;48.636;10.152;2022-12-07T01:10:58;6.30;72.40
30304;DHT22;17112;48.636;10.152;2022-12-07T01:13:24;6.30;72.30
30304;DHT22;17112;48.636;10.152;2022-12-07T01:15:50;6.30;72.30
30304;DHT22;17112;48.636;10.152;2022-12-07T01:18:20;6.20;72.30
30304;DHT22;17112;48.636;10.152;2022-12-07T01:20:57;6.20;72.30
30304;DHT22;17112;48.636;10.152;2022-12-07T01:23:23;6.30;72.30
30304;DHT22;17112;48.636;10.152;2022-12-07T01:25:55;6.20;72.30
30304;DHT22;17112;48.636;10.152;2022-12-07T01:28:20;6.20;72.40
30304;DHT22;17112;48.636;10.152;2022-12-07T01:31:02;6.20;72.30
30304;DHT22;17112;48.636;10.152;2022-12-07T01:33:30;6.20;72.40
30304;DHT22;17112;48.636;10.152;2022-12-07T01:36:04;6.20;72.50
30304;DHT22;17112;48.636;10.152;2022-12-07T01:38:31;6.20;72.40
30304;DHT22;17112;48.636;10.152;2022-12-07T01:40:58;6.20;72.40
30304;DHT22;17112;48.636;10.152;2022-12-07T01:43:26;6.20;72.50
30304;DHT22;17112;48.636;10.152;2022-12-07T01:45:53;6.20;73.10
30304;DHT22;17112;48.636;10.152;2022-12-07T01:48:26;6.20;72.40
30304;DHT22;17112;48.636;10.152;2022-12-07T01:50:53;6.20;72.50
30304;DHT22;17112;48.636;10.152;2022-12-07T01:53:21;6.20;72.50
30304;DHT22;17112;48.636;10.152;2022-12-07T01:55:52;6.20;72.40
30304;DHT22;17112;48.636;10.152;2022-12-07T01:58:19;6.20;72.50
30304;DHT22;17112;48.636;10.152;2022-12-07T02:00:45;6.20;72.40
30304;DHT22;17112;48.636;10.152;2022-12-07T02:03:16;6.20;72.40
30304;DHT22;17112;48.636;10.152;2022-12-07T02:05:43;6.20;72.50
30304;DHT22;17112;48.636;10.152;2022-12-07T02:08:10;6.10;72.40
30304;DHT22;17112;48.636;10.152;2022-12-07T02:10:37;6.10;72.40
30304;DHT22;17112;48.636;10.152;2022-12-07T02:13:08;6.10;72.30
30304;DHT22;17112;48.636;10.152;2022-12-07T02:20:56;6.30;72.40
30304;DHT22;17112;48.636;10.152;2022-12-07T02:26:27;6.10;72.20
30304;DHT22;17112;48.636;10.152;2022-12-07T02:29:14;6.10;72.30
30304;DHT22;17112;48.636;10.152;2022-12-07T02:34:55;6.10;72.20
30304;DHT22;17112;48.636;10.152;2022-12-07T02:40:12;6.00;72.30
30304;DHT22;17112;48.636;10.152;2022-12-07T02:42:44;6.00;72.20
30304;DHT22;17112;48.636;10.152;2022-12-07T02:45:13;6.00;72.20
30304;DHT22;17112;48.636;10.152;2022-12-07T02:47:39;6.00;72.20
30304;DHT22;17112;48.636;10.152;2022-12-07T02:50:07;6.00;72.30
30304;DHT22;17112;48.636;10.152;2022-12-07T02:52:33;5.90;72.30
30304;DHT22;17112;48.636;10.152;2022-12-07T02:54:58;5.90;72.30
30304;DHT22;17112;48.636;10.152;2022-12-07T03:00:11;5.90;72.40
30304;DHT22;17112;48.636;10.152;2022-12-07T03:03:00;5.90;72.50
30304;DHT22;17112;48.636;10.152;2022-12-07T03:12:19;5.90;72.60
30304;DHT22;17112;48.636;10.152;2022-12-07T03:14:34;5.90;72.50
30304;DHT22;17112;48.636;10.152;2022-12-07T03:19:33;5.90;72.40
30304;DHT22;17112;48.636;10.152;2022-12-07T03:22:08;5.90;72.40
30304;DHT22;17112;48.636;10.152;2022-12-07T03:24:43;5.90;72.40
30304;DHT22;17112;48.636;10.152;2022-12-07T03:27:22;5.80;72.30
30304;DHT22;17112;48.636;10.152;2022-12-07T03:30:17;5.80;72.20
30304;DHT22;17112;48.636;10.152;2022-12-07T03:35:37;5.90;72.20
30304;DHT22;17112;48.636;10.152;2022-12-07T03:38:22;5.90;72.20
30304;DHT22;17112;48.636;10.152;2022-12-07T03:41:01;5.80;72.00
30304;DHT22;17112;48.636;10.152;2022-12-07T03:43:30;5.80;71.90
30304;DHT22;17112;48.636;10.152;2022-12-07T03:48:41;5.80;71.70
30304;DHT22;17112;48.636;10.152;2022-12-07T03:51:13;5.80;71.80
30304;DHT22;17112;48.636;10.152;2022-12-07T03:53:51;5.70;71.90
30304;DHT22;17112;48.636;10.152;2022-12-07T03:56:20;5.70;71.90
30304;DHT22;17112;48.636;10.152;2022-12-07T03:58:47;5.70;71.90
30304;DHT22;17112;48.636;10.152;2022-12-07T04:01:13;5.70;72.10
30304;DHT22;17112;48.636;10.152;2022-12-07T04:03:39;5.70;72.10
30304;DHT22;17112;48.636;10.152;2022-12-07T04:06:05;5.70;72.20
30304;DHT22;17112;48.636;10.152;2022-12-07T04:08:31;5.70;72.20
30304;DHT22;17112;48.636;10.152;2022-12-07T04:10:57;5.70;72.20
30304;DHT22;17112;48.636;10.152;2022-12-07T04:13:22;5.70;72.20
30304;DHT22;17112;48.636;10.152;2022-12-07T04:15:48;5.70;72.10
30304;DHT22;17112;48.636;10.152;2022-12-07T04:18:14;5.70;72.00
30304;DHT22;17112;48.636;10.152;2022-12-07T04:20:39;5.70;72.00
30304;DHT22;17112;48.636;10.152;2022-12-07T04:23:05;5.70;72.10
30304;DHT22;17112;48.636;10.152;2022-12-07T04:25:30;5.80;72.20
30304;DHT22;17112;48.636;10.152;2022-12-07T04:27:56;5.80;72.20
30304;DHT22;17112;48.636;10.152;2022-12-07T04:30:22;5.80;72.20
30304;DHT22;17112;48.636;10.152;2022-12-07T04:32:47;5.80;71.90
30304;DHT22;17112;48.636;10.152;2022-12-07T04:35:13;5.80;71.90
30304;DHT22;17112;48.636;10.152;2022-12-07T04:37:39;5.80;71.80
30304;DHT22;17112;48.636;10.152;2022-12-07T04:40:07;5.90;71.90
30304;DHT22;17112;48.636;10.152;2022-12-07T04:42:33;5.90;71.80
30304;DHT22;17112;48.636;10.152;2022-12-07T04:44:59;5.80;71.70
30304;DHT22;17112;48.636;10.152;2022-12-07T04:47:25;5.90;71.80
30304;DHT22;17112;48.636;10.152;2022-12-07T04:49:50;5.80;71.80
30304;DHT22;17112;48.636;10.152;2022-12-07T04:52:16;5.80;71.70
30304;DHT22;17112;48.636;10.152;2022-12-07T04:54:42;5.80;71.60
30304;DHT22;17112;48.636;10.152;2022-12-07T04:57:07;5.80;71.50
30304;DHT22;17112;48.636;10.152;2022-12-07T04:59:33;5.80;71.60
30304;DHT22;17112;48.636;10.152;2022-12-07T05:01:59;5.80;71.50
30304;DHT22;17112;48.636;10.152;2022-12-07T05:04:24;5.80;71.60
30304;DHT22;17112;48.636;10.152;2022-12-07T05:06:50;5.70;71.40
30304;DHT22;17112;48.636;10.152;2022-12-07T05:09:15;5.70;71.60
30304;DHT22;17112;48.636;10.152;2022-12-07T05:11:41;5.70;71.60
30304;DHT22;17112;48.636;10.152;2022-12-07T05:14:10;5.70;71.60
30304;DHT22;17112;48.636;10.152;2022-12-07T05:16:36;5.70;71.50
30304;DHT22;17112;48.636;10.152;2022-12-07T05:19:03;5.60;71.50
30304;DHT22;17112;48.636;10.152;2022-12-07T05:21:29;5.60;71.40
30304;DHT22;17112;48.636;10.152;2022-12-07T05:23:54;5.60;71.40
30304;DHT22;17112;48.636;10.152;2022-12-07T05:26:21;5.60;71.50
30304;DHT22;17112;48.636;10.152;2022-12-07T05:28:53;5.60;71.60
30304;DHT22;17112;48.636;10.152;2022-12-07T05:31:20;5.50;71.50
30304;DHT22;17112;48.636;10.152;2022-12-07T05:33:45;5.50;71.50
30304;DHT22;17112;48.636;10.152;2022-12-07T05:36:11;5.50;71.50
30304;DHT22;17112;48.636;10.152;2022-12-07T05:38:37;5.50;71.50
30304;DHT22;17112;48.636;10.152;2022-12-07T05:41:04;5.40;71.40
30304;DHT22;17112;48.636;10.152;2022-12-07T05:43:32;5.40;71.40
30304;DHT22;17112;48.636;10.152;2022-12-07T05:45:58;5.40;71.50
30304;DHT22;17112;48.636;10.152;2022-12-07T05:48:25;5.30;71.50
30304;DHT22;17112;48.636;10.152;2022-12-07T05:50:51;5.30;71.70
30304;DHT22;17112;48.636;10.152;2022-12-07T05:53:17;5.30;71.80
30304;DHT22;17112;48.636;10.152;2022-12-07T05:55:44;5.20;71.80
30304;DHT22;17112;48.636;10.152;2022-12-07T05:58:10;5.30;71.90
30304;DHT22;17112;48.636;10.152;2022-12-07T06:00:55;5.30;72.00
30304;DHT22;17112;48.636;10.152;2022-12-07T06:03:21;5.30;71.90
30304;DHT22;17112;48.636;10.152;2022-12-07T06:05:46;5.30;71.90
30304;DHT22;17112;48.636;10.152;2022-12-07T06:08:12;5.20;71.80
30304;DHT22;17112;48.636;10.152;2022-12-07T06:10:40;5.20;71.80
30304;DHT22;17112;48.636;10.152;2022-12-07T06:13:06;5.20;71.80
30304;DHT22;17112;48.636;10.152;2022-12-07T06:15:31;5.20;71.80
30304;DHT22;17112;48.636;10.152;2022-12-07T06:17:57;5.20;71.90
30304;DHT22;17112;48.636;10.152;2022-12-07T06:20:22;5.20;71.80
30304;DHT22;17112;48.636;10.152;2022-12-07T06:22:48;5.10;71.80
30304;DHT22;17112;48.636;10.152;2022-12-07T06:25:14;5.20;71.80
30304;DHT22;17112;48.636;10.152;2022-12-07T06:27:39;5.10;71.80
30304;DHT22;17112;48.636;10.152;2022-12-07T06:30:05;5.10;71.90
30304;DHT22;17112;48.636;10.152;2022-12-07T06:32:36;5.10;71.90
30304;DHT22;17112;48.636;10.152;2022-12-07T06:35:03;5.10;71.90
30304;DHT22;17112;48.636;10.152;2022-12-07T06:37:28;5.10;71.90
30304;DHT22;17112;48.636;10.152;2022-12-07T06:39:54;5.10;71.90
30304;DHT22;17112;48.636;10.152;2022-12-07T06:42:20;5.10;71.90
30304;DHT22;17112;48.636;10.152;2022-12-07T06:44:46;5.10;72.00
30304;DHT22;17112;48.636;10.152;2022-12-07T06:47:11;5.10;72.00
30304;DHT22;17112;48.636;10.152;2022-12-07T06:49:37;5.10;72.00
30304;DHT22;17112;48.636;10.152;2022-12-07T06:52:02;5.10;72.10
30304;DHT22;17112;48.636;10.152;2022-12-07T06:54:30;5.10;72.10
30304;DHT22;17112;48.636;10.152;2022-12-07T06:56:56;5.10;72.00
30304;DHT22;17112;48.636;10.152;2022-12-07T06:59:21;5.10;71.80
30304;DHT22;17112;48.636;10.152;2022-12-07T07:01:47;5.20;71.70
30304;DHT22;17112;48.636;10.152;2022-12-07T07:04:12;5.20;71.60
30304;DHT22;17112;48.636;10.152;2022-12-07T07:06:38;5.20;71.60
30304;DHT22;17112;48.636;10.152;2022-12-07T07:09:04;5.20;71.50
30304;DHT22;17112;48.636;10.152;2022-12-07T07:11:29;5.20;71.30
30304;DHT22;17112;48.636;10.152;2022-12-07T07:13:55;5.20;71.30
30304;DHT22;17112;48.636;10.152;2022-12-07T07:16:24;5.20;71.30
30304;DHT22;17112;48.636;10.152;2022-12-07T07:18:49;5.20;71.10
30304;DHT22;17112;48.636;10.152;2022-12-07T07:21:15;5.20;71.20
30304;DHT22;17112;48.636;10.152;2022-12-07T07:23:41;5.30;71.30
30304;DHT22;17112;48.636;10.152;2022-12-07T07:26:06;5.30;71.40
30304;DHT22;17112;48.636;10.152;2022-12-07T07:28:32;5.30;71.20
30304;DHT22;17112;48.636;10.152;2022-12-07T07:30:58;5.30;71.10
30304;DHT22;17112;48.636;10.152;2022-12-07T07:33:23;5.30;70.80
30304;DHT22;17112;48.636;10.152;2022-12-07T07:35:49;5.30;70.90
30304;DHT22;17112;48.636;10.152;2022-12-07T07:38:14;5.40;71.10
30304;DHT22;17112;48.636;10.152;2022-12-07T07:40:40;5.40;71.00
30304;DHT22;17112;48.636;10.152;2022-12-07T07:43:06;5.40;71.00
30304;DHT22;17112;48.636;10.152;2022-12-07T07:45:31;5.40;71.00
30304;DHT22;17112;48.636;10.152;2022-12-07T07:47:57;5.50;71.10
30304;DHT22;17112;48.636;10.152;2022-12-07T07:50:23;5.50;70.90
30304;DHT22;17112;48.636;10.152;2022-12-07T07:52:49;5.50;70.90
30304;DHT22;17112;48.636;10.152;2022-12-07T07:55:15;5.50;70.80
30304;DHT22;17112;48.636;10.152;2022-12-07T07:57:40;5.60;70.80
30304;DHT22;17112;48.636;10.152;2022-12-07T08:00:11;5.60;70.60
30304;DHT22;17112;48.636;10.152;2022-12-07T08:02:38;5.60;70.60
30304;DHT22;17112;48.636;10.152;2022-12-07T08:05:03;5.60;70.70
30304;DHT22;17112;48.636;10.152;2022-12-07T08:07:29;5.60;70.60
30304;DHT22;17112;48.636;10.152;2022-12-07T08:09:55;5.70;70.50
30304;DHT22;17112;48.636;10.152;2022-12-07T08:12:20;5.70;70.40
30304;DHT22;17112;48.636;10.152;2022-12-07T08:14:46;5.70;70.40
30304;DHT22;17112;48.636;10.152;2022-12-07T08:17:12;5.70;70.40
30304;DHT22;17112;48.636;10.152;2022-12-07T08:19:38;5.70;70.10
30304;DHT22;17112;48.636;10.152;2022-12-07T08:22:04;5.70;70.20
30304;DHT22;17112;48.636;10.152;2022-12-07T08:24:33;5.80;70.00
30304;DHT22;17112;48.636;10.152;2022-12-07T08:26:59;5.70;69.80
30304;DHT22;17112;48.636;10.152;2022-12-07T08:29:25;5.80;69.80
30304;DHT22;17112;48.636;10.152;2022-12-07T08:31:51;5.80;69.40
30304;DHT22;17112;48.636;10.152;2022-12-07T08:34:16;5.80;69.60
30304;DHT22;17112;48.636;10.152;2022-12-07T08:36:42;5.80;69.60
30304;DHT22;17112;48.636;10.152;2022-12-07T08:39:08;5.80;69.60
30304;DHT22;17112;48.636;10.152;2022-12-07T08:41:34;5.80;69.50
30304;DHT22;17112;48.636;10.152;2022-12-07T08:44:00;5.80;69.50
30304;DHT22;17112;48.636;10.152;2022-12-07T08:46:30;5.80;69.50
30304;DHT22;17112;48.636;10.152;2022-12-07T08:49:45;5.80;69.40
30304;DHT22;17112;48.636;10.152;2022-12-07T08:51:52;5.80;69.70
30304;DHT22;17112;48.636;10.152;2022-12-07T08:54:18;5.80;69.80
30304;DHT22;17112;48.636;10.152;2022-12-07T08:56:46;5.80;69.20
30304;DHT22;17112;48.636;10.152;2022-12-07T08:59:14;5.80;69.20
30304;DHT22;17112;48.636;10.152;2022-12-07T09:01:42;5.80;69.50
30304;DHT22;17112;48.636;10.152;2022-12-07T09:04:08;5.80;69.60
30304;DHT22;17112;48.636;10.152;2022-12-07T09:06:33;5.80;69.00
30304;DHT22;17112;48.636;10.152;2022-12-07T09:09:00;5.80;69.40
30304;DHT22;17112;48.636;10.152;2022-12-07T09:11:26;5.80;69.40
30304;DHT22;17112;48.636;10.152;2022-12-07T09:13:52;5.80;69.20
30304;DHT22;17112;48.636;10.152;2022-12-07T09:16:18;5.80;69.10
30304;DHT22;17112;48.636;10.152;2022-12-07T09:18:43;5.90;68.80
30304;DHT22;17112;48.636;10.152;2022-12-07T09:21:09;5.90;69.20
30304;DHT22;17112;48.636;10.152;2022-12-07T09:23:35;5.90;69.20
30304;DHT22;17112;48.636;10.152;2022-12-07T09:26:02;5.90;69.20
30304;DHT22;17112;48.636;10.152;2022-12-07T09:28:28;6.00;68.80
30304;DHT22;17112;48.636;10.152;2022-12-07T09:30:54;6.00;68.90
30304;DHT22;17112;48.636;10.152;2022-12-07T09:33:19;6.00;68.70
30304;DHT22;17112;48.636;10.152;2022-12-07T09:35:46;6.10;68.90
30304;DHT22;17112;48.636;10.152;2022-12-07T09:38:12;6.10;68.60
30304;DHT22;17112;48.636;10.152;2022-12-07T09:40:38;6.10;68.70
30304;DHT22;17112;48.636;10.152;2022-12-07T09:43:04;6.20;68.40
30304;DHT22;17112;48.636;10.152;2022-12-07T09:45:35;6.20;68.40
30304;DHT22;17112;48.636;10.152;2022-12-07T09:48:03;6.20;67.90
30304;DHT22;17112;48.636;10.152;2022-12-07T09:50:30;6.20;68.40
30304;DHT22;17112;48.636;10.152;2022-12-07T09:53:11;6.30;68.50
30304;DHT22;17112;48.636;10.152;2022-12-07T09:55:41;6.30;68.20
30304;DHT22;17112;48.636;10.152;2022-12-07T09:58:12;6.40;68.40
30304;DHT22;17112;48.636;10.152;2022-12-07T10:00:42;6.40;68.20
30304;DHT22;17112;48.636;10.152;2022-12-07T10:03:08;6.50;68.30
30304;DHT22;17112;48.636;10.152;2022-12-07T10:05:44;6.50;68.20
30304;DHT22;17112;48.636;10.152;2022-12-07T10:08:12;6.60;67.50
30304;DHT22;17112;48.636;10.152;2022-12-07T10:10:38;6.60;66.70
30304;DHT22;17112;48.636;10.152;2022-12-07T10:18:21;6.70;67.00
30304;DHT22;17112;48.636;10.152;2022-12-07T10:21:21;6.70;66.70
30304;DHT22;17112;48.636;10.152;2022-12-07T10:24:14;6.80;67.20
30304;DHT22;17112;48.636;10.152;2022-12-07T10:34:39;6.90;66.30
30304;DHT22;17112;48.636;10.152;2022-12-07T10:39:46;7.00;66.30
30304;DHT22;17112;48.636;10.152;2022-12-07T10:42:26;7.00;66.30
30304;DHT22;17112;48.636;10.152;2022-12-07T10:47:45;7.00;66.10
30304;DHT22;17112;48.636;10.152;2022-12-07T10:53:40;7.00;64.80
30304;DHT22;17112;48.636;10.152;2022-12-07T10:59:15;7.00;65.40
30304;DHT22;17112;48.636;10.152;2022-12-07T11:04:43;7.00;66.20
30304;DHT22;17112;48.636;10.152;2022-12-07T11:10:14;7.00;65.60
30304;DHT22;17112;48.636;10.152;2022-12-07T11:18:26;7.10;66.00
30304;DHT22;17112;48.636;10.152;2022-12-07T11:20:55;7.20;65.90
30304;DHT22;17112;48.636;10.152;2022-12-07T11:31:37;7.30;65.50
30304;DHT22;17112;48.636;10.152;2022-12-07T11:34:29;7.30;65.50
30304;DHT22;17112;48.636;10.152;2022-12-07T11:36:59;7.30;65.60
30304;DHT22;17112;48.636;10.152;2022-12-07T11:39:56;7.30;65.80
30304;DHT22;17112;48.636;10.152;2022-12-07T11:42:41;7.30;65.10
30304;DHT22;17112;48.636;10.152;2022-12-07T11:45:17;7.30;65.40
30304;DHT22;17112;48.636;10.152;2022-12-07T11:47:51;7.30;65.10
30304;DHT22;17112;48.636;10.152;2022-12-07T11:50:44;7.30;65.00
30304;DHT22;17112;48.636;10.152;2022-12-07T11:55:54;7.30;65.40
30304;DHT22;17112;48.636;10.152;2022-12-07T12:06:34;7.20;65.40
30304;DHT22;17112;48.636;10.152;2022-12-07T12:09:06;7.30;65.40
30304;DHT22;17112;48.636;10.152;2022-12-07T12:17:40;7.20;65.00
30304;DHT22;17112;48.636;10.152;2022-12-07T12:25:46;7.20;65.30
30304;DHT22;17112;48.636;10.152;2022-12-07T12:28:27;7.20;65.00
30304;DHT22;17112;48.636;10.152;2022-12-07T12:31:14;7.30;64.90
30304;DHT22;17112;48.636;10.152;2022-12-07T12:39:21;7.30;65.10
30304;DHT22;17112;48.636;10.152;2022-12-07T12:47:00;7.30;65.00
30304;DHT22;17112;48.636;10.152;2022-12-07T12:51:58;7.30;64.80
30304;DHT22;17112;48.636;10.152;2022-12-07T12:54:29;7.30;64.80
30304;DHT22;17112;48.636;10.152;2022-12-07T12:57:30;7.30;64.90
30304;DHT22;17112;48.636;10.152;2022-12-07T13:00:00;7.30;64.50
30304;DHT22;17112;48.636;10.152;2022-12-07T13:15:54;7.40;64.70
30304;DHT22;17112;48.636;10.152;2022-12-07T13:20:53;7.40;64.90
30304;DHT22;17112;48.636;10.152;2022-12-07T13:24:10;7.40;65.10
30304;DHT22;17112;48.636;10.152;2022-12-07T13:31:57;7.30;65.30
30304;DHT22;17112;48.636;10.152;2022-12-07T13:34:38;7.20;65.20
30304;DHT22;17112;48.636;10.152;2022-12-07T13:37:26;7.20;65.10
30304;DHT22;17112;48.636;10.152;2022-12-07T13:39:58;7.20;65.30
30304;DHT22;17112;48.636;10.152;2022-12-07T13:42:25;7.20;65.20
30304;DHT22;17112;48.636;10.152;2022-12-07T13:44:52;7.20;65.40
30304;DHT22;17112;48.636;10.152;2022-12-07T13:47:43;7.10;65.80
30304;DHT22;17112;48.636;10.152;2022-12-07T13:50:30;7.20;65.60
30304;DHT22;17112;48.636;10.152;2022-12-07T13:53:00;7.10;65.50
30304;DHT22;17112;48.636;10.152;2022-12-07T13:55:27;7.10;65.70
30304;DHT22;17112;48.636;10.152;2022-12-07T13:57:54;7.10;65.80
30304;DHT22;17112;48.636;10.152;2022-12-07T14:00:23;7.00;65.60
30304;DHT22;17112;48.636;10.152;2022-12-07T14:03:29;7.00;65.90
30304;DHT22;17112;48.636;10.152;2022-12-07T14:08:33;7.00;66.20
30304;DHT22;17112;48.636;10.152;2022-12-07T14:10:59;7.00;66.20
30304;DHT22;17112;48.636;10.152;2022-12-07T14:16:02;6.90;66.30
30304;DHT22;17112;48.636;10.152;2022-12-07T14:18:39;6.90;66.50
30304;DHT22;17112;48.636;10.152;2022-12-07T14:21:18;6.90;66.30
30304;DHT22;17112;48.636;10.152;2022-12-07T14:23:46;6.90;66.20
30304;DHT22;17112;48.636;10.152;2022-12-07T14:26:27;6.90;66.30
30304;DHT22;17112;48.636;10.152;2022-12-07T14:29:17;6.90;66.50
30304;DHT22;17112;48.636;10.152;2022-12-07T14:31:38;6.80;66.70
30304;DHT22;17112;48.636;10.152;2022-12-07T14:34:04;6.80;66.90
30304;DHT22;17112;48.636;10.152;2022-12-07T14:36:30;6.90;67.00
30304;DHT22;17112;48.636;10.152;2022-12-07T14:38:55;6.90;66.90
30304;DHT22;17112;48.636;10.152;2022-12-07T14:41:23;6.90;67.00
30304;DHT22;17112;48.636;10.152;2022-12-07T14:44:12;6.90;67.00
30304;DHT22;17112;48.636;10.152;2022-12-07T14:46:37;6.90;66.90
30304;DHT22;17112;48.636;10.152;2022-12-07T14:49:03;6.90;66.80
30304;DHT22;17112;48.636;10.152;2022-12-07T14:51:29;6.90;66.80
30304;DHT22;17112;48.636;10.152;2022-12-07T14:53:55;6.90;66.80
30304;DHT22;17112;48.636;10.152;2022-12-07T14:56:20;6.80;66.80
30304;DHT22;17112;48.636;10.152;2022-12-07T14:58:46;6.80;66.80
30304;DHT22;17112;48.636;10.152;2022-12-07T15:01:13;6.80;66.90
30304;DHT22;17112;48.636;10.152;2022-12-07T15:03:39;6.80;67.10
30304;DHT22;17112;48.636;10.152;2022-12-07T15:06:06;6.80;67.20
30304;DHT22;17112;48.636;10.152;2022-12-07T15:08:32;6.80;67.20
30304;DHT22;17112;48.636;10.152;2022-12-07T15:10:58;6.80;67.10
30304;DHT22;17112;48.636;10.152;2022-12-07T15:13:24;6.80;67.10
30304;DHT22;17112;48.636;10.152;2022-12-07T15:16:11;6.80;67.10
30304;DHT22;17112;48.636;10.152;2022-12-07T15:18:38;6.80;67.10
30304;DHT22;17112;48.636;10.152;2022-12-07T15:21:04;6.70;67.00
30304;DHT22;17112;48.636;10.152;2022-12-07T15:23:29;6.70;67.00
30304;DHT22;17112;48.636;10.152;2022-12-07T15:25:56;6.70;67.20
30304;DHT22;17112;48.636;10.152;2022-12-07T15:28:22;6.70;67.40
30304;DHT22;17112;48.636;10.152;2022-12-07T15:30:47;6.70;67.40
30304;DHT22;17112;48.636;10.152;2022-12-07T15:33:13;6.70;67.50
30304;DHT22;17112;48.636;10.152;2022-12-07T15:35:44;6.60;67.40
30304;DHT22;17112;48.636;10.152;2022-12-07T15:38:10;6.60;67.40
30304;DHT22;17112;48.636;10.152;2022-12-07T15:40:36;6.60;67.40
30304;DHT22;17112;48.636;10.152;2022-12-07T15:43:02;6.60;67.60
30304;DHT22;17112;48.636;10.152;2022-12-07T15:45:28;6.60;67.80
30304;DHT22;17112;48.636;10.152;2022-12-07T15:47:53;6.60;67.80
30304;DHT22;17112;48.636;10.152;2022-12-07T15:50:21;6.60;67.80
30304;DHT22;17112;48.636;10.152;2022-12-07T15:52:47;6.70;67.90
30304;DHT22;17112;48.636;10.152;2022-12-07T15:55:13;6.70;67.90
30304;DHT22;17112;48.636;10.152;2022-12-07T15:57:39;6.70;67.80
30304;DHT22;17112;48.636;10.152;2022-12-07T16:00:06;6.70;67.80
30304;DHT22;17112;48.636;10.152;2022-12-07T16:02:32;6.70;67.60
30304;DHT22;17112;48.636;10.152;2022-12-07T16:04:57;6.70;67.60
30304;DHT22;17112;48.636;10.152;2022-12-07T16:07:23;6.70;67.50
30304;DHT22;17112;48.636;10.152;2022-12-07T16:09:49;6.70;67.60
30304;DHT22;17112;48.636;10.152;2022-12-07T16:12:17;6.70;67.60
30304;DHT22;17112;48.636;10.152;2022-12-07T16:14:43;6.60;67.60
30304;DHT22;17112;48.636;10.152;2022-12-07T16:17:09;6.60;67.60
30304;DHT22;17112;48.636;10.152;2022-12-07T16:19:36;6.60;67.70
30304;DHT22;17112;48.636;10.152;2022-12-07T16:22:03;6.60;67.80
30304;DHT22;17112;48.636;10.152;2022-12-07T16:24:29;6.60;67.90
30304;DHT22;17112;48.636;10.152;2022-12-07T16:26:55;6.60;68.60
30304;DHT22;17112;48.636;10.152;2022-12-07T16:29:22;6.60;67.80
30304;DHT22;17112;48.636;10.152;2022-12-07T16:31:48;6.60;67.80
30304;DHT22;17112;48.636;10.152;2022-12-07T16:34:14;6.60;67.80
30304;DHT22;17112;48.636;10.152;2022-12-07T16:36:40;6.50;68.50
30304;DHT22;17112;48.636;10.152;2022-12-07T16:39:06;6.50;67.70
30304;DHT22;17112;48.636;10.152;2022-12-07T16:41:31;6.50;67.70
30304;DHT22;17112;48.636;10.152;2022-12-07T16:44:00;6.50;67.60
30304;DHT22;17112;48.636;10.152;2022-12-07T16:46:27;6.40;67.60
30304;DHT22;17112;48.636;10.152;2022-12-07T16:48:52;6.40;67.80
30304;DHT22;17112;48.636;10.152;2022-12-07T16:51:18;6.40;67.90
30304;DHT22;17112;48.636;10.152;2022-12-07T16:53:44;6.30;67.90
30304;DHT22;17112;48.636;10.152;2022-12-07T16:56:14;6.30;67.90
30304;DHT22;17112;48.636;10.152;2022-12-07T16:58:43;6.30;67.90
30304;DHT22;17112;48.636;10.152;2022-12-07T17:01:17;6.20;68.00
30304;DHT22;17112;48.636;10.152;2022-12-07T17:03:44;6.20;68.00
30304;DHT22;17112;48.636;10.152;2022-12-07T17:06:15;6.20;68.10
30304;DHT22;17112;48.636;10.152;2022-12-07T17:08:41;6.10;68.20
30304;DHT22;17112;48.636;10.152;2022-12-07T17:11:18;6.10;68.30
30304;DHT22;17112;48.636;10.152;2022-12-07T17:13:44;6.10;68.40
30304;DHT22;17112;48.636;10.152;2022-12-07T17:16:29;6.10;68.50
30304;DHT22;17112;48.636;10.152;2022-12-07T17:18:55;6.00;68.50
30304;DHT22;17112;48.636;10.152;2022-12-07T17:21:21;6.10;68.70
30304;DHT22;17112;48.636;10.152;2022-12-07T17:23:47;6.00;68.80
30304;DHT22;17112;48.636;10.152;2022-12-07T17:26:18;6.10;68.90
30304;DHT22;17112;48.636;10.152;2022-12-07T17:28:44;6.00;68.80
30304;DHT22;17112;48.636;10.152;2022-12-07T17:31:12;6.00;68.60
30304;DHT22;17112;48.636;10.152;2022-12-07T17:33:38;6.00;68.60
30304;DHT22;17112;48.636;10.152;2022-12-07T17:36:12;6.00;68.60
30304;DHT22;17112;48.636;10.152;2022-12-07T17:38:38;6.00;69.30
30304;DHT22;17112;48.636;10.152;2022-12-07T17:41:14;6.00;68.60
30304;DHT22;17112;48.636;10.152;2022-12-07T17:44:06;6.00;68.70
30304;DHT22;17112;48.636;10.152;2022-12-07T17:46:33;6.00;68.60
30304;DHT22;17112;48.636;10.152;2022-12-07T17:49:00;6.00;68.70
30304;DHT22;17112;48.636;10.152;2022-12-07T17:51:26;5.90;68.70
30304;DHT22;17112;48.636;10.152;2022-12-07T17:54:11;5.90;68.90
30304;DHT22;17112;48.636;10.152;2022-12-07T17:56:37;5.90;69.00
30304;DHT22;17112;48.636;10.152;2022-12-07T17:59:04;5.90;69.10
30304;DHT22;17112;48.636;10.152;2022-12-07T18:01:30;6.00;69.20